sensor_id;sensor_type;location;lat;lon;timestamp;temperature;humidity
53520;DHT22;39397;53.204;5.778;2023-04-24T00:01:48;11.00;99.90
53520;DHT22;39397;53.204;5.778;2023-04-24T00:04:14;10.90;99.90
53520;DHT22;39397;53.204;5.778;2023-04-24T00:06:42;10.90;99.90
53520;DHT22;39397;53.204;5.778;2023-04-24T00:09:09;10.90;99.90
53520;DHT22;39397;53.204;5.778;2023-04-24T00:11:36;11.00;99.90
53520;DHT22;39397;53.204;5.778;2023-04-24T00:14:02;9.80;99.90
53520;DHT22;39397;53.204;5.778;2023-04-24T00:16:28;11.00;99.90
53520;DHT22;39397;53.204;5.778;2023-04-24T00:18:54;11.30;99.90
53520;DHT22;39397;53.204;5.778;2023-04-24T00:21:20;11.00;99.90
53520;DHT22;39397;53.204;5.778;2023-04-24T00:23:47;10.80;99.90
53520;DHT22;39397;53.204;5.778;2023-04-24T00:26:13;11.00;99.90
53520;DHT22;39397;53.204;5.778;2023-04-24T00:28:39;11.00;99.90
53520;DHT22;39397;53.204;5.778;2023-04-24T00:31:04;11.00;99.90
53520;DHT22;39397;53.204;5.778;2023-04-24T00:33:30;11.10;99.90
53520;DHT22;39397;53.204;5.778;2023-04-24T00:35:56;11.10;99.90
53520;DHT22;39397;53.204;5.778;2023-04-24T00:38:22;11.00;99.90
53520;DHT22;39397;53.204;5.778;2023-04-24T00:40:48;11.00;99.90
53520;DHT22;39397;53.204;5.778;2023-04-24T00:43:16;11.10;99.90
53520;DHT22;39397;53.204;5.778;2023-04-24T00:45:42;11.20;99.90
53520;DHT22;39397;53.204;5.778;2023-04-24T00:48:09;11.00;99.90
53520;DHT22;39397;53.204;5.778;2023-04-24T00:50:36;11.10;99.90
53520;DHT22;39397;53.204;5.778;2023-04-24T00:53:02;11.20;99.90
53520;DHT22;39397;53.204;5.778;2023-04-24T00:55:28;11.10;99.90
53520;DHT22;39397;53.204;5.778;2023-04-24T00:57:54;11.10;99.90
53520;DHT22;39397;53.204;5.778;2023-04-24T01:00:21;11.10;99.90
53520;DHT22;39397;53.204;5.778;2023-04-24T01:02:48;11.10;99.90
53520;DHT22;39397;53.204;5.778;2023-04-24T01:05:14;11.10;99.90
53520;DHT22;39397;53.204;5.778;2023-04-24T01:07:44;11.10;99.90
53520;DHT22;39397;53.204;5.778;2023-04-24T01:10:11;11.10;99.90
53520;DHT22;39397;53.204;5.778;2023-04-24T01:12:38;11.10;99.90
53520;DHT22;39397;53.204;5.778;2023-04-24T01:15:04;11.20;99.90
53520;DHT22;39397;53.204;5.778;2023-04-24T01:17:32;11.20;99.90
53520;DHT22;39397;53.204;5.778;2023-04-24T01:19:58;11.10;99.90
53520;DHT22;39397;53.204;5.778;2023-04-24T01:22:25;11.10;99.90
53520;DHT22;39397;53.204;5.778;2023-04-24T01:24:52;11.20;99.90
53520;DHT22;39397;53.204;5.778;2023-04-24T01:27:19;11.20;99.90
53520;DHT22;39397;53.204;5.778;2023-04-24T01:29:45;11.20;99.90
53520;DHT22;39397;53.204;5.778;2023-04-24T01:32:13;11.30;99.90
53520;DHT22;39397;53.204;5.778;2023-04-24T01:34:38;11.20;99.90
53520;DHT22;39397;53.204;5.778;2023-04-24T01:37:05;11.30;99.90
53520;DHT22;39397;53.204;5.778;2023-04-24T01:39:31;11.20;99.90
53520;DHT22;39397;53.204;5.778;2023-04-24T01:41:59;11.30;99.90
53520;DHT22;39397;53.204;5.778;2023-04-24T01:44:25;11.40;99.90
53520;DHT22;39397;53.204;5.778;2023-04-24T01:46:51;11.30;99.90
53520;DHT22;39397;53.204;5.778;2023-04-24T01:49:19;11.30;99.90
53520;DHT22;39397;53.204;5.778;2023-04-24T01:51:45;11.30;99.90
53520;DHT22;39397;53.204;5.778;2023-04-24T01:54:11;11.40;99.90
53520;DHT22;39397;53.204;5.778;2023-04-24T01:56:41;11.40;99.90
53520;DHT22;39397;53.204;5.778;2023-04-24T01:59:10;11.40;99.90
53520;DHT22;39397;53.204;5.778;2023-04-24T02:01:37;11.30;99.90
53520;DHT22;39397;53.204;5.778;2023-04-24T02:04:04;11.30;99.90
53520;DHT22;39397;53.204;5.778;2023-04-24T02:06:30;11.40;99.90
53520;DHT22;39397;53.204;5.778;2023-04-24T02:08:57;11.30;99.90
53520;DHT22;39397;53.204;5.778;2023-04-24T02:11:23;11.20;99.90
53520;DHT22;39397;53.204;5.778;2023-04-24T02:13:49;11.30;99.90
53520;DHT22;39397;53.204;5.778;2023-04-24T02:16:15;11.20;99.90
53520;DHT22;39397;53.204;5.778;2023-04-24T02:18:41;11.20;99.90
53520;DHT22;39397;53.204;5.778;2023-04-24T02:21:07;11.10;99.90
53520;DHT22;39397;53.204;5.778;2023-04-24T02:23:33;11.00;99.90
53520;DHT22;39397;53.204;5.778;2023-04-24T02:25:58;10.90;99.90
53520;DHT22;39397;53.204;5.778;2023-04-24T02:28:24;10.80;99.90
53520;DHT22;39397;53.204;5.778;2023-04-24T02:30:50;11.20;99.90
53520;DHT22;39397;53.204;5.778;2023-04-24T02:33:16;10.60;99.90
53520;DHT22;39397;53.204;5.778;2023-04-24T02:35:42;10.50;99.90
53520;DHT22;39397;53.204;5.778;2023-04-24T02:38:08;10.50;99.90
53520;DHT22;39397;53.204;5.778;2023-04-24T02:40:33;10.50;99.90
53520;DHT22;39397;53.204;5.778;2023-04-24T02:42:59;10.60;99.90
53520;DHT22;39397;53.204;5.778;2023-04-24T02:45:25;10.40;99.90
53520;DHT22;39397;53.204;5.778;2023-04-24T02:47:53;10.40;99.90
53520;DHT22;39397;53.204;5.778;2023-04-24T02:50:18;10.30;99.90
53520;DHT22;39397;53.204;5.778;2023-04-24T02:52:44;10.20;99.90
53520;DHT22;39397;53.204;5.778;2023-04-24T02:55:10;10.30;99.90
53520;DHT22;39397;53.204;5.778;2023-04-24T02:57:36;10.30;99.90
53520;DHT22;39397;53.204;5.778;2023-04-24T03:00:02;10.10;99.90
53520;DHT22;39397;53.204;5.778;2023-04-24T03:02:28;10.20;99.90
53520;DHT22;39397;53.204;5.778;2023-04-24T03:04:54;10.30;99.90
53520;DHT22;39397;53.204;5.778;2023-04-24T03:07:20;10.20;99.90
53520;DHT22;39397;53.204;5.778;2023-04-24T03:09:46;10.20;99.90
53520;DHT22;39397;53.204;5.778;2023-04-24T03:12:13;10.30;99.90
53520;DHT22;39397;53.204;5.778;2023-04-24T03:14:38;10.20;99.90
53520;DHT22;39397;53.204;5.778;2023-04-24T03:17:04;10.00;99.90
53520;DHT22;39397;53.204;5.778;2023-04-24T03:19:30;10.20;99.90
53520;DHT22;39397;53.204;5.778;2023-04-24T03:21:56;10.10;99.90
53520;DHT22;39397;53.204;5.778;2023-04-24T03:24:21;10.10;99.90
53520;DHT22;39397;53.204;5.778;2023-04-24T03:26:48;10.00;99.90
53520;DHT22;39397;53.204;5.778;2023-04-24T03:29:16;10.00;99.90
53520;DHT22;39397;53.204;5.778;2023-04-24T03:31:41;10.10;99.90
53520;DHT22;39397;53.204;5.778;2023-04-24T03:34:07;10.10;99.90
53520;DHT22;39397;53.204;5.778;2023-04-24T03:36:33;10.00;99.90
53520;DHT22;39397;53.204;5.778;2023-04-24T03:38:58;10.90;99.90
53520;DHT22;39397;53.204;5.778;2023-04-24T03:41:24;10.00;99.90
53520;DHT22;39397;53.204;5.778;2023-04-24T03:43:50;9.90;99.90
53520;DHT22;39397;53.204;5.778;2023-04-24T03:46:15;10.00;99.90
53520;DHT22;39397;53.204;5.778;2023-04-24T03:48:41;10.00;99.90
53520;DHT22;39397;53.204;5.778;2023-04-24T03:51:07;10.40;99.90
53520;DHT22;39397;53.204;5.778;2023-04-24T03:53:33;9.80;99.90
53520;DHT22;39397;53.204;5.778;2023-04-24T03:55:58;9.90;99.90
53520;DHT22;39397;53.204;5.778;2023-04-24T03:58:24;9.90;99.90
53520;DHT22;39397;53.204;5.778;2023-04-24T04:00:50;9.90;99.90
53520;DHT22;39397;53.204;5.778;2023-04-24T04:03:16;9.80;99.90
53520;DHT22;39397;53.204;5.778;2023-04-24T04:05:42;11.00;99.90
53520;DHT22;39397;53.204;5.778;2023-04-24T04:08:07;9.80;99.90
53520;DHT22;39397;53.204;5.778;2023-04-24T04:10:33;9.80;99.90
53520;DHT22;39397;53.204;5.778;2023-04-24T04:12:59;9.80;99.90
53520;DHT22;39397;53.204;5.778;2023-04-24T04:15:25;9.80;99.90
53520;DHT22;39397;53.204;5.778;2023-04-24T04:17:51;9.80;99.90
53520;DHT22;39397;53.204;5.778;2023-04-24T04:20:17;9.80;99.90
53520;DHT22;39397;53.204;5.778;2023-04-24T04:22:42;9.90;99.90
53520;DHT22;39397;53.204;5.778;2023-04-24T04:25:08;9.70;99.90
53520;DHT22;39397;53.204;5.778;2023-04-24T04:27:34;8.50;99.90
53520;DHT22;39397;53.204;5.778;2023-04-24T04:30:04;9.70;99.90
53520;DHT22;39397;53.204;5.778;2023-04-24T04:32:31;9.70;99.90
53520;DHT22;39397;53.204;5.778;2023-04-24T04:34:59;9.70;99.90
53520;DHT22;39397;53.204;5.778;2023-04-24T04:37:39;9.90;99.90
53520;DHT22;39397;53.204;5.778;2023-04-24T04:40:06;9.80;99.90
53520;DHT22;39397;53.204;5.778;2023-04-24T04:42:32;9.70;99.90
53520;DHT22;39397;53.204;5.778;2023-04-24T04:45:00;9.70;99.90
53520;DHT22;39397;53.204;5.778;2023-04-24T04:47:43;9.80;99.90
53520;DHT22;39397;53.204;5.778;2023-04-24T04:50:10;9.80;99.90
53520;DHT22;39397;53.204;5.778;2023-04-24T04:52:45;9.90;99.90
53520;DHT22;39397;53.204;5.778;2023-04-24T04:55:14;9.50;99.90
53520;DHT22;39397;53.204;5.778;2023-04-24T04:57:40;9.70;99.90
53520;DHT22;39397;53.204;5.778;2023-04-24T05:00:06;8.70;99.90
53520;DHT22;39397;53.204;5.778;2023-04-24T05:02:32;9.70;99.90
53520;DHT22;39397;53.204;5.778;2023-04-24T05:04:58;9.80;99.90
53520;DHT22;39397;53.204;5.778;2023-04-24T05:07:24;9.70;99.90
53520;DHT22;39397;53.204;5.778;2023-04-24T05:09:49;9.80;99.90
53520;DHT22;39397;53.204;5.778;2023-04-24T05:12:16;9.80;99.90
53520;DHT22;39397;53.204;5.778;2023-04-24T05:14:42;9.80;99.90
53520;DHT22;39397;53.204;5.778;2023-04-24T05:17:08;9.80;99.90
53520;DHT22;39397;53.204;5.778;2023-04-24T05:19:33;9.80;99.90
53520;DHT22;39397;53.204;5.778;2023-04-24T05:22:01;9.80;99.90
53520;DHT22;39397;53.204;5.778;2023-04-24T05:24:29;9.70;99.90
53520;DHT22;39397;53.204;5.778;2023-04-24T05:26:55;9.70;99.90
53520;DHT22;39397;53.204;5.778;2023-04-24T05:29:22;9.70;99.90
53520;DHT22;39397;53.204;5.778;2023-04-24T05:31:48;9.70;99.90
53520;DHT22;39397;53.204;5.778;2023-04-24T05:34:13;9.70;99.90
53520;DHT22;39397;53.204;5.778;2023-04-24T05:36:44;9.60;99.90
53520;DHT22;39397;53.204;5.778;2023-04-24T05:39:10;10.40;99.90
53520;DHT22;39397;53.204;5.778;2023-04-24T05:41:36;9.70;99.90
53520;DHT22;39397;53.204;5.778;2023-04-24T05:44:01;9.70;99.90
53520;DHT22;39397;53.204;5.778;2023-04-24T05:46:27;9.60;99.90
53520;DHT22;39397;53.204;5.778;2023-04-24T05:48:53;9.60;99.90
53520;DHT22;39397;53.204;5.778;2023-04-24T05:51:18;9.70;99.90
53520;DHT22;39397;53.204;5.778;2023-04-24T05:53:45;9.70;99.90
53520;DHT22;39397;53.204;5.778;2023-04-24T05:56:11;9.70;99.90
53520;DHT22;39397;53.204;5.778;2023-04-24T05:58:37;9.60;99.90
53520;DHT22;39397;53.204;5.778;2023-04-24T06:01:03;9.70;99.90
53520;DHT22;39397;53.204;5.778;2023-04-24T06:03:29;9.60;99.90
53520;DHT22;39397;53.204;5.778;2023-04-24T06:05:54;9.50;99.90
53520;DHT22;39397;53.204;5.778;2023-04-24T06:08:20;9.50;99.90
53520;DHT22;39397;53.204;5.778;2023-04-24T06:10:49;9.50;99.90
53520;DHT22;39397;53.204;5.778;2023-04-24T06:13:15;9.50;99.90
53520;DHT22;39397;53.204;5.778;2023-04-24T06:15:41;9.50;99.90
53520;DHT22;39397;53.204;5.778;2023-04-24T06:18:07;9.50;99.90
53520;DHT22;39397;53.204;5.778;2023-04-24T06:20:38;9.60;99.90
53520;DHT22;39397;53.204;5.778;2023-04-24T06:23:04;9.60;99.90
53520;DHT22;39397;53.204;5.778;2023-04-24T06:25:30;9.50;99.90
53520;DHT22;39397;53.204;5.778;2023-04-24T06:27:56;9.50;99.90
53520;DHT22;39397;53.204;5.778;2023-04-24T06:30:22;9.50;99.90
53520;DHT22;39397;53.204;5.778;2023-04-24T06:32:48;9.50;99.90
53520;DHT22;39397;53.204;5.778;2023-04-24T06:35:14;9.50;99.90
53520;DHT22;39397;53.204;5.778;2023-04-24T06:37:42;9.30;99.90
53520;DHT22;39397;53.204;5.778;2023-04-24T06:40:09;9.30;99.90
53520;DHT22;39397;53.204;5.778;2023-04-24T06:42:35;9.30;99.90
53520;DHT22;39397;53.204;5.778;2023-04-24T06:45:01;9.10;99.90
53520;DHT22;39397;53.204;5.778;2023-04-24T06:47:27;9.30;99.90
53520;DHT22;39397;53.204;5.778;2023-04-24T06:49:53;9.40;99.90
53520;DHT22;39397;53.204;5.778;2023-04-24T06:52:19;9.20;99.90
53520;DHT22;39397;53.204;5.778;2023-04-24T06:54:45;9.30;99.90
53520;DHT22;39397;53.204;5.778;2023-04-24T06:57:11;9.20;99.90
53520;DHT22;39397;53.204;5.778;2023-04-24T06:59:37;9.50;99.90
53520;DHT22;39397;53.204;5.778;2023-04-24T07:02:03;9.20;99.90
53520;DHT22;39397;53.204;5.778;2023-04-24T07:04:29;9.20;99.90
53520;DHT22;39397;53.204;5.778;2023-04-24T07:06:55;9.20;99.90
53520;DHT22;39397;53.204;5.778;2023-04-24T07:09:26;9.30;99.90
53520;DHT22;39397;53.204;5.778;2023-04-24T07:11:53;9.20;99.90
53520;DHT22;39397;53.204;5.778;2023-04-24T07:14:20;9.20;99.90
53520;DHT22;39397;53.204;5.778;2023-04-24T07:16:46;10.90;99.90
53520;DHT22;39397;53.204;5.778;2023-04-24T07:19:12;9.20;99.90
53520;DHT22;39397;53.204;5.778;2023-04-24T07:21:39;8.50;99.90
53520;DHT22;39397;53.204;5.778;2023-04-24T07:24:05;9.20;99.90
53520;DHT22;39397;53.204;5.778;2023-04-24T07:26:32;9.10;99.90
53520;DHT22;39397;53.204;5.778;2023-04-24T07:28:57;9.20;99.90
53520;DHT22;39397;53.204;5.778;2023-04-24T07:31:23;9.10;99.90
53520;DHT22;39397;53.204;5.778;2023-04-24T07:33:51;9.20;99.90
53520;DHT22;39397;53.204;5.778;2023-04-24T07:36:17;9.20;99.90
53520;DHT22;39397;53.204;5.778;2023-04-24T07:38:47;9.30;99.90
53520;DHT22;39397;53.204;5.778;2023-04-24T07:41:14;9.00;99.90
53520;DHT22;39397;53.204;5.778;2023-04-24T07:43:40;9.10;99.90
53520;DHT22;39397;53.204;5.778;2023-04-24T07:46:07;9.10;99.90
53520;DHT22;39397;53.204;5.778;2023-04-24T07:48:33;9.20;99.90
53520;DHT22;39397;53.204;5.778;2023-04-24T07:50:58;9.20;99.90
53520;DHT22;39397;53.204;5.778;2023-04-24T07:53:24;9.40;99.90
53520;DHT22;39397;53.204;5.778;2023-04-24T07:55:50;9.20;99.90
53520;DHT22;39397;53.204;5.778;2023-04-24T07:58:16;9.20;99.90
53520;DHT22;39397;53.204;5.778;2023-04-24T08:00:41;9.30;99.90
53520;DHT22;39397;53.204;5.778;2023-04-24T08:03:07;9.30;99.90
53520;DHT22;39397;53.204;5.778;2023-04-24T08:05:33;10.60;99.90
53520;DHT22;39397;53.204;5.778;2023-04-24T08:07:59;9.50;99.90
53520;DHT22;39397;53.204;5.778;2023-04-24T08:10:24;9.60;99.90
53520;DHT22;39397;53.204;5.778;2023-04-24T08:12:50;9.60;99.90
53520;DHT22;39397;53.204;5.778;2023-04-24T08:15:16;9.50;99.90
53520;DHT22;39397;53.204;5.778;2023-04-24T08:17:42;9.70;99.90
53520;DHT22;39397;53.204;5.778;2023-04-24T08:20:10;9.90;99.90
53520;DHT22;39397;53.204;5.778;2023-04-24T08:22:39;9.60;99.90
53520;DHT22;39397;53.204;5.778;2023-04-24T08:25:06;9.60;99.90
53520;DHT22;39397;53.204;5.778;2023-04-24T08:27:32;9.60;99.90
53520;DHT22;39397;53.204;5.778;2023-04-24T08:29:58;9.60;99.90
53520;DHT22;39397;53.204;5.778;2023-04-24T08:32:26;9.70;99.90
53520;DHT22;39397;53.204;5.778;2023-04-24T08:34:55;9.70;99.90
53520;DHT22;39397;53.204;5.778;2023-04-24T08:37:22;9.80;99.90
53520;DHT22;39397;53.204;5.778;2023-04-24T08:39:51;9.90;99.90
53520;DHT22;39397;53.204;5.778;2023-04-24T08:42:19;10.10;99.90
53520;DHT22;39397;53.204;5.778;2023-04-24T08:44:45;10.20;99.90
53520;DHT22;39397;53.204;5.778;2023-04-24T08:47:11;10.10;99.90
53520;DHT22;39397;53.204;5.778;2023-04-24T08:49:38;10.20;99.90
53520;DHT22;39397;53.204;5.778;2023-04-24T08:52:10;10.30;99.90
53520;DHT22;39397;53.204;5.778;2023-04-24T08:54:39;10.30;99.90
53520;DHT22;39397;53.204;5.778;2023-04-24T08:57:09;10.40;99.90
53520;DHT22;39397;53.204;5.778;2023-04-24T08:59:38;10.60;99.90
53520;DHT22;39397;53.204;5.778;2023-04-24T09:02:04;10.90;99.90
53520;DHT22;39397;53.204;5.778;2023-04-24T09:04:30;10.70;99.90
53520;DHT22;39397;53.204;5.778;2023-04-24T09:06:59;10.70;99.90
53520;DHT22;39397;53.204;5.778;2023-04-24T09:09:25;10.80;99.90
53520;DHT22;39397;53.204;5.778;2023-04-24T09:11:52;10.90;99.90
53520;DHT22;39397;53.204;5.778;2023-04-24T09:14:21;10.90;99.90
53520;DHT22;39397;53.204;5.778;2023-04-24T09:16:49;11.10;99.90
53520;DHT22;39397;53.204;5.778;2023-04-24T09:19:15;9.20;99.90
53520;DHT22;39397;53.204;5.778;2023-04-24T09:21:45;11.00;99.90
53520;DHT22;39397;53.204;5.778;2023-04-24T09:24:19;11.10;99.90
53520;DHT22;39397;53.204;5.778;2023-04-24T09:26:49;11.30;99.90
53520;DHT22;39397;53.204;5.778;2023-04-24T09:29:25;11.00;99.90
53520;DHT22;39397;53.204;5.778;2023-04-24T09:31:56;10.90;99.90
53520;DHT22;39397;53.204;5.778;2023-04-24T09:34:26;11.10;99.90
53520;DHT22;39397;53.204;5.778;2023-04-24T09:36:53;10.10;99.90
53520;DHT22;39397;53.204;5.778;2023-04-24T09:39:19;11.10;99.90
53520;DHT22;39397;53.204;5.778;2023-04-24T09:41:55;10.90;99.90
53520;DHT22;39397;53.204;5.778;2023-04-24T09:44:25;12.70;99.90
53520;DHT22;39397;53.204;5.778;2023-04-24T09:46:56;11.30;99.90
53520;DHT22;39397;53.204;5.778;2023-04-24T09:49:24;11.20;99.90
53520;DHT22;39397;53.204;5.778;2023-04-24T09:52:16;11.00;99.90
53520;DHT22;39397;53.204;5.778;2023-04-24T09:55:11;10.80;99.90
53520;DHT22;39397;53.204;5.778;2023-04-24T09:57:54;10.90;99.90
53520;DHT22;39397;53.204;5.778;2023-04-24T10:00:26;11.00;99.90
53520;DHT22;39397;53.204;5.778;2023-04-24T10:02:59;10.80;99.90
53520;DHT22;39397;53.204;5.778;2023-04-24T10:05:30;10.80;99.90
53520;DHT22;39397;53.204;5.778;2023-04-24T10:08:15;9.40;99.90
53520;DHT22;39397;53.204;5.778;2023-04-24T10:10:44;9.30;99.90
53520;DHT22;39397;53.204;5.778;2023-04-24T10:13:14;10.80;99.90
53520;DHT22;39397;53.204;5.778;2023-04-24T10:15:49;10.90;99.90
53520;DHT22;39397;53.204;5.778;2023-04-24T10:18:15;10.90;99.90
53520;DHT22;39397;53.204;5.778;2023-04-24T10:20:49;10.80;99.90
53520;DHT22;39397;53.204;5.778;2023-04-24T10:23:22;11.00;99.90
53520;DHT22;39397;53.204;5.778;2023-04-24T10:26:04;11.30;99.90
53520;DHT22;39397;53.204;5.778;2023-04-24T10:28:51;11.10;99.90
53520;DHT22;39397;53.204;5.778;2023-04-24T10:31:17;10.70;99.90
53520;DHT22;39397;53.204;5.778;2023-04-24T10:33:53;11.40;99.90
53520;DHT22;39397;53.204;5.778;2023-04-24T10:36:29;11.20;99.90
53520;DHT22;39397;53.204;5.778;2023-04-24T10:39:05;11.20;99.90
53520;DHT22;39397;53.204;5.778;2023-04-24T10:41:54;11.30;99.90
53520;DHT22;39397;53.204;5.778;2023-04-24T10:44:32;12.10;99.90
53520;DHT22;39397;53.204;5.778;2023-04-24T10:47:29;11.20;99.90
53520;DHT22;39397;53.204;5.778;2023-04-24T10:50:16;10.20;99.90
53520;DHT22;39397;53.204;5.778;2023-04-24T10:52:53;11.10;99.90
53520;DHT22;39397;53.204;5.778;2023-04-24T10:55:48;10.50;99.90
53520;DHT22;39397;53.204;5.778;2023-04-24T10:58:15;10.20;99.90
53520;DHT22;39397;53.204;5.778;2023-04-24T11:00:54;10.40;99.90
53520;DHT22;39397;53.204;5.778;2023-04-24T11:03:50;9.90;99.90
53520;DHT22;39397;53.204;5.778;2023-04-24T11:06:31;7.70;99.90
53520;DHT22;39397;53.204;5.778;2023-04-24T11:09:06;10.40;99.90
53520;DHT22;39397;53.204;5.778;2023-04-24T11:11:36;10.00;99.90
53520;DHT22;39397;53.204;5.778;2023-04-24T11:14:24;10.30;99.90
53520;DHT22;39397;53.204;5.778;2023-04-24T11:17:26;10.10;99.90
53520;DHT22;39397;53.204;5.778;2023-04-24T11:19:50;10.20;99.90
53520;DHT22;39397;53.204;5.778;2023-04-24T11:22:35;10.60;99.90
53520;DHT22;39397;53.204;5.778;2023-04-24T11:25:04;10.50;99.90
53520;DHT22;39397;53.204;5.778;2023-04-24T11:27:38;10.70;99.90
53520;DHT22;39397;53.204;5.778;2023-04-24T11:30:18;11.10;99.90
53520;DHT22;39397;53.204;5.778;2023-04-24T11:32:47;10.60;99.90
53520;DHT22;39397;53.204;5.778;2023-04-24T11:35:32;10.30;99.90
53520;DHT22;39397;53.204;5.778;2023-04-24T11:38:06;9.80;99.90
53520;DHT22;39397;53.204;5.778;2023-04-24T11:40:37;8.60;99.90
53520;DHT22;39397;53.204;5.778;2023-04-24T11:43:04;10.30;99.90
53520;DHT22;39397;53.204;5.778;2023-04-24T11:45:52;11.30;99.90
53520;DHT22;39397;53.204;5.778;2023-04-24T11:48:28;8.90;99.90
53520;DHT22;39397;53.204;5.778;2023-04-24T11:51:01;10.60;99.90
53520;DHT22;39397;53.204;5.778;2023-04-24T11:53:32;11.40;99.90
53520;DHT22;39397;53.204;5.778;2023-04-24T11:56:08;11.10;99.90
53520;DHT22;39397;53.204;5.778;2023-04-24T11:58:57;11.30;99.90
53520;DHT22;39397;53.204;5.778;2023-04-24T12:01:50;9.80;99.90
53520;DHT22;39397;53.204;5.778;2023-04-24T12:04:23;11.20;99.90
53520;DHT22;39397;53.204;5.778;2023-04-24T12:07:04;11.00;99.90
53520;DHT22;39397;53.204;5.778;2023-04-24T12:09:59;11.50;99.90
53520;DHT22;39397;53.204;5.778;2023-04-24T12:12:35;12.60;99.90
53520;DHT22;39397;53.204;5.778;2023-04-24T12:15:34;9.90;99.90
53520;DHT22;39397;53.204;5.778;2023-04-24T12:18:14;11.60;99.90
53520;DHT22;39397;53.204;5.778;2023-04-24T12:21:15;11.80;99.90
53520;DHT22;39397;53.204;5.778;2023-04-24T12:23:47;11.90;99.90
53520;DHT22;39397;53.204;5.778;2023-04-24T12:26:27;10.60;99.90
53520;DHT22;39397;53.204;5.778;2023-04-24T12:29:05;11.60;99.90
53520;DHT22;39397;53.204;5.778;2023-04-24T12:31:44;11.60;99.90
53520;DHT22;39397;53.204;5.778;2023-04-24T12:34:24;10.00;99.90
53520;DHT22;39397;53.204;5.778;2023-04-24T12:36:57;11.50;99.90
53520;DHT22;39397;53.204;5.778;2023-04-24T12:39:37;11.70;99.90
53520;DHT22;39397;53.204;5.778;2023-04-24T12:42:06;12.20;99.90
53520;DHT22;39397;53.204;5.778;2023-04-24T12:44:39;11.50;99.90
53520;DHT22;39397;53.204;5.778;2023-04-24T12:47:08;11.70;99.90
53520;DHT22;39397;53.204;5.778;2023-04-24T12:49:35;11.30;99.90
53520;DHT22;39397;53.204;5.778;2023-04-24T12:52:03;10.10;99.90
53520;DHT22;39397;53.204;5.778;2023-04-24T12:55:05;12.20;99.90
53520;DHT22;39397;53.204;5.778;2023-04-24T12:57:35;11.90;99.90
53520;DHT22;39397;53.204;5.778;2023-04-24T13:00:04;11.60;99.90
53520;DHT22;39397;53.204;5.778;2023-04-24T13:02:41;11.40;99.90
53520;DHT22;39397;53.204;5.778;2023-04-24T13:05:08;12.50;99.90
53520;DHT22;39397;53.204;5.778;2023-04-24T13:07:42;11.40;99.90
53520;DHT22;39397;53.204;5.778;2023-04-24T13:10:23;9.80;99.90
53520;DHT22;39397;53.204;5.778;2023-04-24T13:12:49;9.10;99.90
53520;DHT22;39397;53.204;5.778;2023-04-24T13:15:22;10.60;99.90
53520;DHT22;39397;53.204;5.778;2023-04-24T13:18:03;8.80;99.90
53520;DHT22;39397;53.204;5.778;2023-04-24T13:20:42;10.40;99.90
53520;DHT22;39397;53.204;5.778;2023-04-24T13:23:32;9.10;99.90
53520;DHT22;39397;53.204;5.778;2023-04-24T13:26:09;10.30;99.90
53520;DHT22;39397;53.204;5.778;2023-04-24T13:28:45;10.20;99.90
53520;DHT22;39397;53.204;5.778;2023-04-24T13:31:29;10.30;99.90
53520;DHT22;39397;53.204;5.778;2023-04-24T13:33:55;10.30;99.90
53520;DHT22;39397;53.204;5.778;2023-04-24T13:36:32;10.00;99.90
53520;DHT22;39397;53.204;5.778;2023-04-24T13:39:06;11.60;99.90
53520;DHT22;39397;53.204;5.778;2023-04-24T13:41:45;10.30;99.90
53520;DHT22;39397;53.204;5.778;2023-04-24T13:44:23;8.80;99.90
53520;DHT22;39397;53.204;5.778;2023-04-24T13:47:01;11.40;99.90
53520;DHT22;39397;53.204;5.778;2023-04-24T13:49:29;10.20;99.90
53520;DHT22;39397;53.204;5.778;2023-04-24T13:52:00;10.30;99.90
53520;DHT22;39397;53.204;5.778;2023-04-24T13:54:28;10.20;99.90
53520;DHT22;39397;53.204;5.778;2023-04-24T13:57:06;11.10;99.90
53520;DHT22;39397;53.204;5.778;2023-04-24T13:59:34;10.30;99.90
53520;DHT22;39397;53.204;5.778;2023-04-24T14:02:03;10.00;99.90
53520;DHT22;39397;53.204;5.778;2023-04-24T14:04:34;10.10;99.90
53520;DHT22;39397;53.204;5.778;2023-04-24T14:09:47;9.20;99.90
53520;DHT22;39397;53.204;5.778;2023-04-24T14:12:17;10.30;99.90
53520;DHT22;39397;53.204;5.778;2023-04-24T14:14:46;10.10;99.90
53520;DHT22;39397;53.204;5.778;2023-04-24T14:17:12;9.90;99.90
53520;DHT22;39397;53.204;5.778;2023-04-24T14:19:45;9.90;99.90
53520;DHT22;39397;53.204;5.778;2023-04-24T14:22:16;9.60;99.90
53520;DHT22;39397;53.204;5.778;2023-04-24T14:24:44;10.00;99.90
53520;DHT22;39397;53.204;5.778;2023-04-24T14:30:19;10.30;99.90
53520;DHT22;39397;53.204;5.778;2023-04-24T14:32:51;10.10;99.90
53520;DHT22;39397;53.204;5.778;2023-04-24T14:35:17;8.70;99.90
53520;DHT22;39397;53.204;5.778;2023-04-24T14:37:45;10.10;99.90
53520;DHT22;39397;53.204;5.778;2023-04-24T14:40:14;9.90;99.90
53520;DHT22;39397;53.204;5.778;2023-04-24T14:42:52;9.70;99.90
53520;DHT22;39397;53.204;5.778;2023-04-24T14:45:22;9.80;99.90
53520;DHT22;39397;53.204;5.778;2023-04-24T14:47:48;10.20;99.90
53520;DHT22;39397;53.204;5.778;2023-04-24T14:50:16;10.30;99.90
53520;DHT22;39397;53.204;5.778;2023-04-24T14:52:42;9.70;99.90
53520;DHT22;39397;53.204;5.778;2023-04-24T14:55:20;8.20;99.90
53520;DHT22;39397;53.204;5.778;2023-04-24T14:57:48;8.00;99.90
53520;DHT22;39397;53.204;5.778;2023-04-24T15:00:22;9.40;99.90
53520;DHT22;39397;53.204;5.778;2023-04-24T15:02:53;8.20;99.90
53520;DHT22;39397;53.204;5.778;2023-04-24T15:05:28;9.60;99.90
53520;DHT22;39397;53.204;5.778;2023-04-24T15:07:53;9.90;99.90
53520;DHT22;39397;53.204;5.778;2023-04-24T15:10:20;9.60;99.90
53520;DHT22;39397;53.204;5.778;2023-04-24T15:12:51;9.30;99.90
53520;DHT22;39397;53.204;5.778;2023-04-24T15:15:19;10.50;99.90
53520;DHT22;39397;53.204;5.778;2023-04-24T15:17:50;7.90;99.90
53520;DHT22;39397;53.204;5.778;2023-04-24T15:20:20;9.90;99.90
53520;DHT22;39397;53.204;5.778;2023-04-24T15:22:51;9.20;99.90
53520;DHT22;39397;53.204;5.778;2023-04-24T15:25:19;10.50;99.90
53520;DHT22;39397;53.204;5.778;2023-04-24T15:27:50;9.30;99.90
53520;DHT22;39397;53.204;5.778;2023-04-24T15:30:18;9.30;99.90
53520;DHT22;39397;53.204;5.778;2023-04-24T15:32:47;9.30;99.90
53520;DHT22;39397;53.204;5.778;2023-04-24T15:35:13;9.40;99.90
53520;DHT22;39397;53.204;5.778;2023-04-24T15:37:56;9.10;99.90
53520;DHT22;39397;53.204;5.778;2023-04-24T15:40:27;9.00;99.90
53520;DHT22;39397;53.204;5.778;2023-04-24T15:42:53;9.10;99.90
53520;DHT22;39397;53.204;5.778;2023-04-24T15:45:19;9.10;99.90
53520;DHT22;39397;53.204;5.778;2023-04-24T15:47:45;9.40;99.90
53520;DHT22;39397;53.204;5.778;2023-04-24T15:50:18;9.00;99.90
53520;DHT22;39397;53.204;5.778;2023-04-24T15:52:50;9.10;99.90
53520;DHT22;39397;53.204;5.778;2023-04-24T15:55:15;9.00;99.90
53520;DHT22;39397;53.204;5.778;2023-04-24T15:57:42;10.00;99.90
53520;DHT22;39397;53.204;5.778;2023-04-24T16:00:08;9.10;99.90